Weather History for KLUM - May, 2013

Change the Weather History Date:

Sunday, May 12, 2013

  Actual Average (KEAU) Record (KEAU)
Temperature  
Mean Temperature 44 °F 56 °F  
Max Temperature 55 °F 69 °F 92 °F (1900)
Min Temperature 33 °F 44 °F 26 °F (1967)
Degree Days  
Heating Degree Days 21 9  
Month to date heating degree days 128  
Since 1 July heating degree days 7769  
Cooling Degree Days 0 1  
Month to date cooling degree days 6  
Year to date cooling degree days 10  
Moisture  
Dew Point 19 °F    
Average Humidity 39    
Maximum Humidity 65    
Minimum Humidity 21    
Precipitation  
Precipitation 0.00 in 0.11 in 1.86 in (1963)
Month to date precipitation 1.29  
Year to date precipitation 7.47  
Snow  
Snow 0.00 in 0.00 in 2.00 in (1946)
Month to date snowfall 0.2  
Since 1 July snowfall 47.0  
Snow Depth -    
Sea Level Pressure  
Sea Level Pressure 30.13 in    
Wind  
Wind Speed 11 mph (WNW)    
Max Wind Speed 21 mph    
Max Gust Speed 26 mph    
Visibility 10 miles    
Events      
T = Trace of Precipitation, MM = Missing Value Source: NWS Daily Summary

Daily Weather History Graph

Daily Weather History Graph

Search for Another Location

Airport or City:

Trip Planner

Search our weather history database for the weather conditions in past years. The results will help you decide how hot, cold, wet, or windy it might be!

Date:

Astronomy

May. 12, 2013 Rise Set
Actual Time 5:41 AM CDT 8:26 PM CDT
Civil Twilight 5:08 AM CDT 9:00 PM CDT
Nautical Twilight 4:25 AM CDT 9:43 PM CDT
Astronomical Twilight 3:36 AM CDT 10:33 PM CDT
Moon 7:35 AM CDT (5/12) 10:54 PM CDT (5/12)
Length of Visible Light 15h 52m
Length of Day
14h 44m
Waxing Crescent, 7% of the Moon is Illuminated
May 12
Waxing Crescent
May 17
First Quarter
May 24
Full
May 31
Last Quarter
Jun 8
New

Hourly Weather History & Observations

Time (CDT) Temp. Windchill Dew Point Humidity Pressure Visibility Wind Dir Wind Speed Gust Speed Precip Events Conditions
12:15 AM 41.0 °F 35.2 °F 23.0 °F 49% 30.13 in 10.0 mi West 9.2 mph - N/A   Mostly Cloudy
12:35 AM 39.2 °F 32.5 °F 23.0 °F 52% 30.13 in 10.0 mi WNW 10.4 mph - N/A   Scattered Clouds
12:55 AM 41.0 °F 34.7 °F 21.2 °F 45% 30.13 in 10.0 mi WNW 10.4 mph - N/A   Mostly Cloudy
1:15 AM 39.2 °F 32.0 °F 21.2 °F 49% 30.14 in 10.0 mi WNW 11.5 mph - N/A   Scattered Clouds
1:35 AM 39.2 °F 32.0 °F 21.2 °F 49% 30.14 in 10.0 mi WNW 11.5 mph 16.1 mph N/A   Scattered Clouds
1:55 AM 37.4 °F 30.3 °F 21.2 °F 52% 30.14 in 10.0 mi NW 10.4 mph - N/A   Scattered Clouds
2:15 AM 39.2 °F 32.5 °F 21.2 °F 49% 30.14 in 10.0 mi NW 10.4 mph - N/A   Overcast
2:35 AM 37.4 °F 29.3 °F 21.2 °F 52% 30.14 in 10.0 mi NNW 12.7 mph 19.6 mph N/A   Scattered Clouds
2:55 AM 37.4 °F 29.8 °F 21.2 °F 52% 30.15 in 10.0 mi NNW 11.5 mph 21.9 mph N/A   Clear
3:15 AM 37.4 °F 30.3 °F 21.2 °F 52% 30.15 in 10.0 mi NNW 10.4 mph 19.6 mph N/A   Clear
3:35 AM 35.6 °F 28.0 °F 21.2 °F 56% 30.15 in 10.0 mi NNW 10.4 mph - N/A   Clear
4:15 AM 35.6 °F 28.0 °F 21.2 °F 56% 30.15 in 10.0 mi NW 10.4 mph 16.1 mph N/A   Clear
4:35 AM 35.6 °F 28.6 °F 21.2 °F 56% 30.15 in 10.0 mi NW 9.2 mph - N/A   Clear
4:55 AM 35.6 °F 28.6 °F 21.2 °F 56% 30.15 in 10.0 mi WNW 9.2 mph - N/A   Clear
5:15 AM 33.8 °F 26.4 °F 21.2 °F 60% 30.15 in 10.0 mi WNW 9.2 mph - N/A   Clear
5:35 AM 33.8 °F 27.7 °F 21.2 °F 60% 30.16 in 10.0 mi WNW 6.9 mph - N/A   Clear
5:55 AM 33.8 °F 27.0 °F 21.2 °F 60% 30.16 in 10.0 mi West 8.1 mph - N/A   Clear
6:15 AM 33.8 °F 27.7 °F 23.0 °F 65% 30.17 in 10.0 mi West 6.9 mph - N/A   Clear
6:35 AM 33.8 °F 27.7 °F 23.0 °F 65% 30.17 in 10.0 mi West 6.9 mph - N/A   Clear
6:55 AM 33.8 °F 27.0 °F 23.0 °F 65% 30.18 in 10.0 mi West 8.1 mph - N/A   Clear
7:15 AM 35.6 °F 28.6 °F 23.0 °F 60% 30.18 in 10.0 mi West 9.2 mph - N/A   Clear
7:35 AM 35.6 °F 28.6 °F 23.0 °F 60% 30.18 in 10.0 mi WNW 9.2 mph - N/A   Clear
7:55 AM 37.4 °F 30.8 °F 23.0 °F 56% 30.18 in 10.0 mi WNW 9.2 mph - N/A   Clear
8:15 AM 37.4 °F 28.9 °F 21.2 °F 52% 30.18 in 10.0 mi NW 13.8 mph - N/A   Clear
8:35 AM 39.2 °F 31.2 °F 21.2 °F 49% 30.19 in 10.0 mi WNW 13.8 mph 19.6 mph N/A   Clear
8:55 AM 41.0 °F 31.6 °F 21.2 °F 45% 30.18 in 10.0 mi NW 20.7 mph 24.2 mph N/A   Clear
9:15 AM 41.0 °F 32.8 °F 19.4 °F 42% 30.18 in 10.0 mi WNW 16.1 mph - N/A   Clear
9:35 AM 42.8 °F 35.4 °F 19.4 °F 39% 30.18 in 10.0 mi WNW 15.0 mph 18.4 mph N/A   Clear
9:55 AM 42.8 °F 35.1 °F 19.4 °F 39% 30.18 in 10.0 mi NW 16.1 mph 21.9 mph N/A   Clear
10:15 AM 42.8 °F 36.2 °F 19.4 °F 39% 30.18 in 10.0 mi WNW 12.7 mph 21.9 mph N/A   Clear
10:35 AM 44.6 °F 38.8 °F 17.6 °F 34% 30.17 in 10.0 mi WNW 11.5 mph 19.6 mph N/A   Clear
10:55 AM 44.6 °F 37.4 °F 15.8 °F 31% 30.17 in 10.0 mi WNW 16.1 mph 24.2 mph N/A   Clear
11:15 AM 46.4 °F 39.5 °F 14.0 °F 27% 30.17 in 10.0 mi NW 17.3 mph 25.3 mph N/A   Clear
11:35 AM 46.4 °F 39.5 °F 14.0 °F 27% 30.17 in 10.0 mi WNW 17.3 mph 23.0 mph N/A   Clear
11:55 AM 46.4 °F 39.8 °F 14.0 °F 27% 30.17 in 10.0 mi WNW 16.1 mph 25.3 mph N/A   Clear
12:15 PM 48.2 °F - 14.0 °F 25% 30.16 in 10.0 mi NW 18.4 mph - N/A   Clear
12:35 PM 48.2 °F - 14.0 °F 25% 30.15 in 10.0 mi WNW 13.8 mph 26.5 mph N/A   Clear
12:55 PM 50.0 °F - 14.0 °F 24% 30.15 in 10.0 mi WNW 17.3 mph 24.2 mph N/A   Clear
1:15 PM 50.0 °F - 14.0 °F 24% 30.14 in 10.0 mi WNW 16.1 mph 24.2 mph N/A   Clear
1:35 PM 51.8 °F - 15.8 °F 24% 30.13 in 10.0 mi WNW 15.0 mph 24.2 mph N/A   Clear
1:55 PM 51.8 °F - 14.0 °F 22% 30.13 in 10.0 mi NW 12.7 mph 21.9 mph N/A   Clear
2:15 PM 51.8 °F - 14.0 °F 22% 30.13 in 10.0 mi NW 12.7 mph 19.6 mph N/A   Clear
2:35 PM 51.8 °F - 17.6 °F 26% 30.12 in 10.0 mi West 16.1 mph 25.3 mph N/A   Clear
2:55 PM 51.8 °F - 17.6 °F 26% 30.11 in 10.0 mi NNW 11.5 mph 23.0 mph N/A   Clear
3:15 PM 53.6 °F - 15.8 °F 22% 30.11 in 10.0 mi WNW 15.0 mph 23.0 mph N/A   Clear
3:35 PM 53.6 °F - 17.6 °F 24% 30.11 in 10.0 mi WNW 12.7 mph 21.9 mph N/A   Clear
3:55 PM 53.6 °F - 15.8 °F 22% 30.11 in 10.0 mi NW 15.0 mph 23.0 mph N/A   Clear
4:15 PM 53.6 °F - 14.0 °F 21% 30.10 in 10.0 mi WNW 15.0 mph 23.0 mph N/A   Clear
4:35 PM 53.6 °F - 17.6 °F 24% 30.10 in 10.0 mi WNW 15.0 mph 19.6 mph N/A   Clear
4:55 PM 53.6 °F - 15.8 °F 22% 30.09 in 10.0 mi NW 15.0 mph 20.7 mph N/A   Clear
5:15 PM 53.6 °F - 15.8 °F 22% 30.09 in 10.0 mi West 15.0 mph 24.2 mph N/A   Clear
5:35 PM 55.4 °F - 17.6 °F 23% 30.09 in 10.0 mi NNW 11.5 mph - N/A   Clear
5:55 PM 53.6 °F - 17.6 °F 24% 30.09 in 10.0 mi West 11.5 mph - N/A   Clear
6:15 PM 53.6 °F - 15.8 °F 22% 30.09 in 10.0 mi West 10.4 mph 16.1 mph N/A   Clear
6:35 PM 53.6 °F - 17.6 °F 24% 30.09 in 10.0 mi WNW 11.5 mph 19.6 mph N/A   Clear
6:55 PM 53.6 °F - 17.6 °F 24% 30.08 in 10.0 mi West 11.5 mph 18.4 mph N/A   Clear
7:15 PM 53.6 °F - 19.4 °F 26% 30.08 in 10.0 mi WNW 9.2 mph - N/A   Clear
7:35 PM 53.6 °F - 19.4 °F 26% 30.08 in 10.0 mi WNW 9.2 mph - N/A   Clear
7:55 PM 51.8 °F - 19.4 °F 28% 30.08 in 10.0 mi West 9.2 mph - N/A   Clear
8:15 PM 50.0 °F - 19.4 °F 30% 30.08 in 10.0 mi West 8.1 mph - N/A   Clear
8:35 PM 50.0 °F - 19.4 °F 30% 30.09 in 10.0 mi WNW 8.1 mph - N/A   Clear
8:55 PM 48.2 °F - 19.4 °F 32% 30.09 in 10.0 mi West 5.8 mph - N/A   Clear
9:15 PM 46.4 °F 44.3 °F 19.4 °F 34% 30.09 in 10.0 mi West 4.6 mph - N/A   Clear
9:35 PM 46.4 °F 44.3 °F 19.4 °F 34% 30.10 in 10.0 mi West 4.6 mph - N/A   Clear
9:55 PM 46.4 °F 44.3 °F 19.4 °F 34% 30.11 in 10.0 mi West 4.6 mph - N/A   Clear
10:15 PM 46.4 °F 45.2 °F 19.4 °F 34% 30.11 in 10.0 mi West 3.5 mph - N/A   Clear
10:35 PM 46.4 °F 45.2 °F 19.4 °F 34% 30.10 in 10.0 mi West 3.5 mph - N/A   Clear
10:55 PM 42.8 °F - 23.0 °F 46% 30.11 in 10.0 mi Calm Calm - N/A   Clear
11:15 PM 41.0 °F - 24.8 °F 53% 30.11 in 10.0 mi Calm Calm - N/A   Clear
11:35 PM 42.8 °F - 23.0 °F 46% 30.10 in 10.0 mi Calm Calm - N/A   Clear
11:55 PM 39.2 °F - 24.8 °F 56% 30.11 in 10.0 mi Calm Calm - N/A   Clear